Time;durP1;ratioP1;P1;durP2;ratioP2;P2;SDS_P1;SDS_P2;PMS_P1;PMS_P2;Temp;Humidity;BMP_temperature;BMP_pressure;BME280_temperature;BME280_humidity;BME280_pressure;Samples;Min_cycle;Max_cycle;Signal;HPM_P1;HPM_P2
2021/12/21 00:04:02;;;;;;;18.20;7.43;;;;;;;-2.90;65.86;100975.91;10405969;28;20042;-67
2021/12/21 00:09:20;;;;;;;20.60;7.03;;;;;;;-2.96;65.57;100970.72;10389284;28;20057;-67
2021/12/21 00:14:37;;;;;;;12.80;6.38;;;;;;;-3.00;65.88;100963.84;10416505;28;20055;-68
2021/12/21 00:25:09;;;;;;;15.23;6.88;;;;;;;-3.03;65.89;100968.94;10359594;28;20080;-67
2021/12/21 00:30:11;;;;;;;17.02;7.25;;;;;;;-3.10;65.62;100962.88;10403679;28;20477;-67
2021/12/21 00:35:13;;;;;;;17.90;7.80;;;;;;;-3.37;65.73;100954.03;10403477;28;20048;-67
2021/12/21 00:40:15;;;;;;;15.13;6.65;;;;;;;-3.32;65.99;100955.78;10403396;28;20045;-67
2021/12/21 00:45:16;;;;;;;17.80;6.65;;;;;;;-3.35;65.90;100952.34;10403604;28;20050;-67
2021/12/21 00:50:19;;;;;;;13.95;6.72;;;;;;;-3.39;66.50;100950.59;10404236;28;20133;-67
2021/12/21 00:55:22;;;;;;;14.68;6.60;;;;;;;-3.32;66.12;100943.00;10400729;28;20257;-67
2021/12/21 01:00:24;;;;;;;19.52;11.73;;;;;;;-3.31;65.84;100941.31;10402526;28;20045;-67
2021/12/21 01:05:34;;;;;;;18.50;7.45;;;;;;;-3.34;66.04;100943.81;10404023;28;20145;-67
2021/12/21 01:16:18;;;;;;;16.50;6.88;;;;;;;-3.34;65.78;100938.69;10403061;28;20088;-67
2021/12/21 01:21:23;;;;;;;15.85;6.90;;;;;;;-3.52;65.83;100935.91;10403565;28;20107;-67
2021/12/21 01:26:39;;;;;;;15.15;5.82;;;;;;;-3.52;65.99;100941.03;10401930;28;20048;-67
2021/12/21 01:37:16;;;;;;;11.50;5.95;;;;;;;-3.52;65.84;100933.34;10390830;28;20050;-67
2021/12/21 01:52:59;;;;;;;15.85;7.38;;;;;;;-3.89;65.85;100917.53;10402220;28;20490;-67
2021/12/21 01:58:01;;;;;;;15.50;6.32;;;;;;;-3.91;66.17;100909.00;10402169;28;20132;-66
2021/12/21 02:03:03;;;;;;;15.60;6.95;;;;;;;-3.81;66.09;100913.38;10404367;28;20220;-67
2021/12/21 02:08:05;;;;;;;11.40;5.97;;;;;;;-3.82;65.84;100919.34;10411563;28;20494;-67
2021/12/21 02:13:07;;;;;;;16.60;6.75;;;;;;;-3.76;66.04;100928.78;10409979;28;20091;-67
2021/12/21 02:23:28;;;;;;;13.43;5.57;;;;;;;-3.77;65.64;100911.72;10410242;28;20120;-67
2021/12/21 02:33:33;;;;;;;12.52;5.65;;;;;;;-3.79;65.62;100911.72;10409175;28;20085;-67
2021/12/21 02:38:35;;;;;;;12.20;5.40;;;;;;;-3.83;65.48;100906.53;10409080;28;20405;-67
2021/12/21 02:43:38;;;;;;;13.27;5.72;;;;;;;-3.83;65.63;100899.72;10408217;28;20076;-67
2021/12/21 02:48:40;;;;;;;14.18;5.43;;;;;;;-3.85;65.46;100896.28;10409348;28;20501;-67
2021/12/21 02:53:44;;;;;;;16.48;6.00;;;;;;;-3.87;65.48;100900.53;10409005;28;20508;-67
2021/12/21 02:58:45;;;;;;;11.27;6.00;;;;;;;-3.97;65.51;100897.81;10407962;28;20512;-67
2021/12/21 03:03:48;;;;;;;16.50;6.25;;;;;;;-3.95;65.65;100889.34;10413200;28;20053;-67
2021/12/21 03:08:56;;;;;;;13.38;6.47;;;;;;;-3.98;65.39;100891.00;10416691;28;20072;-67
2021/12/21 03:14:04;;;;;;;11.98;6.15;;;;;;;-4.02;65.48;100897.78;10414814;28;20144;-67
2021/12/21 03:19:08;;;;;;;13.27;6.30;;;;;;;-4.18;65.46;100895.81;10414836;28;20132;-67
2021/12/21 03:24:10;;;;;;;14.18;6.07;;;;;;;-4.14;65.41;100891.63;10415135;28;20507;-67
2021/12/21 03:29:12;;;;;;;17.52;6.53;;;;;;;-4.13;65.38;100894.19;10415015;28;20053;-67
2021/12/21 03:34:13;;;;;;;14.00;6.07;;;;;;;-4.16;65.57;100899.25;10415305;28;20056;-67
2021/12/21 03:39:19;;;;;;;13.48;5.97;;;;;;;-4.27;65.47;100905.03;10415302;28;20522;-67
2021/12/21 03:44:23;;;;;;;12.43;5.18;;;;;;;-4.29;65.58;100902.47;10429298;28;20137;-67
2021/12/21 03:54:30;;;;;;;12.65;6.43;;;;;;;-4.25;65.29;100904.22;10414951;28;20054;-67
2021/12/21 03:59:31;;;;;;;13.73;5.93;;;;;;;-4.29;65.41;100909.25;10413887;28;20057;-67
2021/12/21 04:04:33;;;;;;;14.77;5.75;;;;;;;-4.25;65.46;100903.38;10409987;28;20056;-67
2021/12/21 04:09:35;;;;;;;12.93;5.82;;;;;;;-4.28;65.35;100896.50;10407162;28;20380;-67
2021/12/21 04:14:37;;;;;;;11.20;5.88;;;;;;;-4.35;65.15;100898.94;10406078;28;20137;-67
2021/12/21 04:19:45;;;;;;;13.93;5.93;;;;;;;-4.39;65.28;100890.41;10406647;28;20053;-67
2021/12/21 04:24:47;;;;;;;14.57;5.43;;;;;;;-4.42;65.54;100892.06;10405790;28;20501;-67
2021/12/21 04:29:49;;;;;;;11.75;5.50;;;;;;;-4.43;65.60;100888.63;10406332;28;20049;-67
2021/12/21 04:34:51;;;;;;;14.70;5.57;;;;;;;-4.39;65.33;100880.19;10405581;28;20409;-67
2021/12/21 04:40:01;;;;;;;13.80;5.60;;;;;;;-4.45;65.16;100886.88;10405631;28;20050;-67
2021/12/21 04:45:04;;;;;;;13.02;5.53;;;;;;;-4.47;65.16;100881.75;10402919;28;20556;-67
2021/12/21 04:50:06;;;;;;;10.45;5.43;;;;;;;-4.50;64.85;100881.69;10405538;28;20124;-67
2021/12/21 04:55:08;;;;;;;12.38;5.55;;;;;;;-4.50;65.27;100888.53;10404536;28;20045;-67
2021/12/21 05:00:12;;;;;;;13.85;5.97;;;;;;;-4.49;65.15;100888.53;10404952;28;20124;-67
2021/12/21 05:05:14;;;;;;;13.68;5.25;;;;;;;-4.49;65.25;100892.78;10404806;28;20041;-67
2021/12/21 05:10:16;;;;;;;17.98;6.05;;;;;;;-4.54;65.16;100890.13;10404740;28;20133;-67
2021/12/21 05:15:17;;;;;;;12.48;6.13;;;;;;;-4.59;65.11;100889.22;10403982;28;20063;-67
2021/12/21 05:20:19;;;;;;;12.68;5.55;;;;;;;-4.64;65.10;100891.69;10404149;28;20132;-67
2021/12/21 05:25:21;;;;;;;13.23;5.80;;;;;;;-4.67;65.28;100883.13;10404087;28;20091;-67
2021/12/21 05:30:23;;;;;;;14.00;5.57;;;;;;;-4.70;65.15;100862.66;10402932;28;20132;-67
2021/12/21 05:35:26;;;;;;;17.70;6.60;;;;;;;-4.72;65.02;100869.41;10403591;28;20049;-67
2021/12/21 05:40:42;;;;;;;14.18;6.47;;;;;;;-4.85;64.94;100886.22;10413444;28;20050;-67
2021/12/21 05:45:43;;;;;;;15.00;6.95;;;;;;;-4.89;65.02;100886.16;10416093;28;20059;-67
2021/12/21 05:50:45;;;;;;;18.65;6.82;;;;;;;-4.97;65.19;100888.56;10417392;28;20048;-68
2021/12/21 05:55:47;;;;;;;10.95;6.43;;;;;;;-5.01;65.22;100891.88;10417039;28;20436;-67
2021/12/21 06:00:49;;;;;;;12.43;6.32;;;;;;;-4.98;65.50;100898.72;10417732;28;20050;-67
2021/12/21 06:05:51;;;;;;;12.18;6.03;;;;;;;-4.95;65.44;100898.81;10431718;28;20346;-67
2021/12/21 06:10:55;;;;;;;11.98;6.22;;;;;;;-4.89;65.34;100901.47;10415440;28;20041;-67
2021/12/21 06:26:28;;;;;;;14.25;6.30;;;;;;;-4.95;64.98;100901.34;10429780;28;20496;-67
2021/12/21 06:31:30;;;;;;;19.10;6.57;;;;;;;-5.01;65.21;100898.66;10416021;28;20404;-66
2021/12/21 06:36:32;;;;;;;13.50;6.13;;;;;;;-5.03;65.26;100907.97;10416166;28;20434;-66
2021/12/21 06:41:36;;;;;;;12.80;6.28;;;;;;;-5.02;65.14;100909.72;10415347;28;20084;-67
2021/12/21 06:51:51;;;;;;;18.35;8.05;;;;;;;-5.06;65.02;100907.94;10411442;28;20473;-67
2021/12/21 06:56:53;;;;;;;15.32;7.35;;;;;;;-5.06;65.05;100903.72;10409812;28;20552;-67
2021/12/21 07:01:55;;;;;;;14.57;7.20;;;;;;;-5.12;64.99;100906.16;10408939;28;20179;-67
2021/12/21 07:06:58;;;;;;;14.25;6.38;;;;;;;-5.12;65.14;100902.72;10407850;28;20399;-67
2021/12/21 07:22:34;;;;;;;12.50;6.37;;;;;;;-5.05;64.76;100918.16;10386431;28;20449;-66
2021/12/21 07:27:36;;;;;;;13.38;6.13;;;;;;;-5.06;64.86;100919.00;10408726;28;20136;-66
2021/12/21 07:32:38;;;;;;;12.68;5.90;;;;;;;-5.05;64.90;100914.75;10407399;28;20092;-67
2021/12/21 07:37:40;;;;;;;16.38;6.82;;;;;;;-5.09;64.80;100918.06;10406392;28;20103;-67
2021/12/21 07:42:42;;;;;;;13.02;6.45;;;;;;;-5.19;64.83;100913.63;10408353;28;20112;-67
2021/12/21 07:47:44;;;;;;;16.52;7.53;;;;;;;-5.09;64.87;100918.06;10407084;28;20077;-67
2021/12/21 07:52:47;;;;;;;14.27;7.30;;;;;;;-5.04;64.83;100934.31;10422660;28;20061;-67
2021/12/21 07:57:52;;;;;;;17.35;8.35;;;;;;;-5.00;64.57;100941.22;10371689;28;20116;-67
2021/12/21 08:02:54;;;;;;;19.63;8.32;;;;;;;-4.99;64.74;100945.50;10405872;28;20128;-67
2021/12/21 08:08:07;;;;;;;16.27;8.25;;;;;;;-4.92;64.69;100937.09;10406746;28;20057;-67
2021/12/21 08:13:10;;;;;;;21.63;7.70;;;;;;;-4.82;64.54;100939.84;10404299;28;20980;-67
2021/12/21 08:18:11;;;;;;;16.23;6.30;;;;;;;-4.71;64.51;100945.16;10406440;28;20077;-67
2021/12/21 08:23:13;;;;;;;13.98;7.45;;;;;;;-4.66;64.47;100938.44;10406233;28;20048;-66
2021/12/21 08:28:15;;;;;;;15.68;7.45;;;;;;;-4.55;64.49;100930.16;10405887;28;20141;-67
2021/12/21 08:33:17;;;;;;;19.17;7.60;;;;;;;-4.32;64.23;100927.94;10401586;28;20160;-67
2021/12/21 08:38:19;;;;;;;15.27;6.90;;;;;;;-4.26;63.96;100925.47;10396679;28;20220;-76
2021/12/21 08:43:28;;;;;;;16.40;7.25;;;;;;;-4.20;63.81;100928.13;10405387;28;20085;-76
2021/12/21 08:48:31;;;;;;;16.98;7.47;;;;;;;-4.12;63.64;100929.13;10397333;28;20084;-76
2021/12/21 08:53:34;;;;;;;16.65;7.30;;;;;;;-4.02;63.67;100922.47;10391682;28;20441;-75
2021/12/21 08:58:37;;;;;;;15.88;7.20;;;;;;;-3.84;63.94;100925.28;10417971;28;20706;-77
2021/12/21 09:03:39;;;;;;;16.27;7.85;;;;;;;-3.74;63.73;100925.41;10375127;28;20050;-76
2021/12/21 09:08:41;;;;;;;23.23;9.90;;;;;;;-3.62;63.50;100934.06;10382587;28;20049;-76
2021/12/21 09:13:43;;;;;;;13.93;8.30;;;;;;;-3.59;63.75;100939.25;10394629;28;20490;-75
2021/12/21 09:18:45;;;;;;;17.27;8.60;;;;;;;-3.43;63.67;100938.59;10397440;28;20056;-73
2021/12/21 09:23:47;;;;;;;23.02;9.32;;;;;;;-3.33;63.61;100938.75;10394300;28;20716;-75
2021/12/21 09:28:49;;;;;;;19.60;9.02;;;;;;;-3.21;63.67;100944.00;10401648;28;20041;-77
2021/12/21 09:33:51;;;;;;;15.27;8.45;;;;;;;-3.16;63.87;100932.09;10401741;28;20047;-78
2021/12/21 09:38:56;;;;;;;16.92;8.82;;;;;;;-2.96;63.67;100938.28;10401562;28;20068;-77
2021/12/21 09:44:00;;;;;;;18.05;8.63;;;;;;;-2.69;63.52;100937.72;10403552;28;20045;-79
2021/12/21 09:49:03;;;;;;;30.67;13.38;;;;;;;-2.61;63.18;100935.25;10403381;28;20077;-78
2021/12/21 09:54:05;;;;;;;26.92;13.05;;;;;;;-2.56;63.45;100941.25;10403378;28;20500;-82
2021/12/21 09:59:07;;;;;;;31.60;13.23;;;;;;;-2.37;63.17;100933.78;10402455;28;20041;-78
2021/12/21 10:04:09;;;;;;;30.85;13.68;;;;;;;-2.37;63.26;100938.03;10401894;28;20091;-79
2021/12/21 10:09:11;;;;;;;37.03;16.35;;;;;;;-2.20;62.99;100937.31;10402462;28;20076;-76
2021/12/21 10:14:33;;;;;;;;;;;;;;;-2.25;63.31;100933.00;10404298;28;20049;-77
2021/12/21 10:19:36;;;;;;;18.80;9.38;;;;;;;-2.14;62.89;100929.66;10401491;28;19975;-76
2021/12/21 10:24:52;;;;;;;28.00;10.35;;;;;;;-2.03;62.34;100915.22;10421044;28;20053;-78
2021/12/21 10:29:57;;;;;;;16.63;10.07;;;;;;;-1.91;62.87;100911.00;10411714;28;20041;-79
2021/12/21 10:35:04;;;;;;;21.20;9.88;;;;;;;-1.96;62.56;100902.47;10401123;28;20520;-78
2021/12/21 10:40:25;;;;;;;20.52;9.20;;;;;;;-0.87;63.10;100896.91;10408569;28;20128;-74
2021/12/21 10:45:42;;;;;;;19.10;8.90;;;;;;;-1.28;61.21;100898.50;10409806;28;20125;-76
2021/12/21 10:50:45;;;;;;;23.77;10.65;;;;;;;-1.36;62.34;100892.50;10409824;28;20183;-74
2021/12/21 10:56:02;;;;;;;20.45;10.65;;;;;;;-1.31;62.26;100903.63;10410383;28;20490;-74
2021/12/21 11:01:08;;;;;;;22.70;9.57;;;;;;;-1.33;62.38;100901.03;10410001;28;20049;-73
2021/12/21 11:06:17;;;;;;;17.70;9.60;;;;;;;-1.33;61.91;100895.09;10410792;28;20133;-74
2021/12/21 11:11:29;;;;;;;19.08;9.80;;;;;;;-1.28;61.76;100894.22;10410255;28;20132;-74
2021/12/21 11:16:36;;;;;;;20.98;9.50;;;;;;;-1.28;61.87;100883.09;10408122;28;20061;-75
2021/12/21 11:21:39;;;;;;;21.58;10.13;;;;;;;-1.13;61.84;100878.03;10409762;28;20077;-73
2021/12/21 11:26:43;;;;;;;18.92;10.23;;;;;;;-1.05;61.62;100878.91;10409086;28;20514;-73
2021/12/21 11:31:49;;;;;;;21.30;8.82;;;;;;;-0.95;61.24;100872.94;10408290;28;20100;-74
2021/12/21 11:42:40;;;;;;;17.17;9.38;;;;;;;-0.95;61.61;100851.53;10409059;28;20132;-73
2021/12/21 11:47:50;;;;;;;20.13;9.55;;;;;;;-0.83;61.28;100846.41;10407609;28;20045;-75
2021/12/21 11:52:54;;;;;;;16.23;10.13;;;;;;;-0.65;61.40;100836.13;10408200;28;20077;-76
2021/12/21 11:57:59;;;;;;;25.85;11.43;;;;;;;-0.53;61.36;100836.13;10408372;28;20065;-77
2021/12/21 12:03:20;;;;;;;12.43;7.85;;;;;;;-0.47;60.68;100831.84;10407208;28;20469;-76
2021/12/21 12:08:24;;;;;;;18.48;7.93;;;;;;;-0.39;60.73;100824.97;10406979;28;20053;-76
2021/12/21 12:13:37;;;;;;;17.67;8.40;;;;;;;-0.34;60.89;100818.13;10405853;28;20140;-79
2021/12/21 12:18:43;;;;;;;16.60;9.10;;;;;;;-0.23;60.73;100804.41;10407413;28;20080;-75
2021/12/21 12:23:57;;;;;;;15.60;8.60;;;;;;;-0.09;60.88;100807.81;10408074;28;20056;-76
2021/12/21 12:29:15;;;;;;;17.25;8.05;;;;;;;-0.07;60.76;100808.66;10407352;28;20115;-76
2021/12/21 12:34:29;;;;;;;20.48;9.70;;;;;;;0.04;60.93;100805.19;10386221;28;20560;-76
2021/12/21 12:39:39;;;;;;;18.02;7.93;;;;;;;0.13;60.34;100812.00;10407041;28;20080;-76
2021/12/21 12:44:43;;;;;;;18.30;9.63;;;;;;;0.23;60.57;100793.09;10379994;28;20133;-78
2021/12/21 12:49:50;;;;;;;17.45;9.60;;;;;;;0.33;60.39;100787.06;10387166;28;20124;-78
2021/12/21 12:55:00;;;;;;;17.83;8.77;;;;;;;0.45;60.14;100797.28;10406307;28;20089;-76
2021/12/21 13:00:19;;;;;;;13.48;7.68;;;;;;;0.40;59.62;100799.03;10405897;28;20144;-76
2021/12/21 13:05:25;;;;;;;18.33;8.88;;;;;;;0.33;60.00;100782.78;10405294;28;20049;-77
2021/12/21 13:10:26;;;;;;;15.00;8.32;;;;;;;0.41;59.93;100781.03;10406029;28;20041;-76
2021/12/21 13:15:34;;;;;;;15.05;8.18;;;;;;;0.49;59.92;100771.53;10405103;28;20421;-77
2021/12/21 13:20:37;;;;;;;17.27;7.90;;;;;;;0.48;59.79;100776.69;10405252;28;20421;-76
2021/12/21 13:25:40;;;;;;;15.43;7.80;;;;;;;0.58;59.66;100769.78;10420869;28;20058;-77
2021/12/21 13:30:47;;;;;;;15.98;8.63;;;;;;;0.61;59.69;100772.34;10404739;28;20045;-76
2021/12/21 13:35:51;;;;;;;17.92;8.05;;;;;;;0.61;59.57;100772.34;10404416;28;20049;-77
2021/12/21 13:40:59;;;;;;;16.48;8.02;;;;;;;0.62;59.29;100769.75;10405106;28;20045;-76
2021/12/21 13:46:08;;;;;;;20.60;9.43;;;;;;;0.59;59.86;100771.50;10404447;28;20490;-76
2021/12/21 13:51:15;;;;;;;19.60;8.80;;;;;;;0.69;59.40;100765.44;10404195;28;20073;-78
2021/12/21 13:56:20;;;;;;;15.63;8.25;;;;;;;0.75;59.49;100773.09;10404257;28;20536;-78
2021/12/21 14:01:29;;;;;;;14.20;7.78;;;;;;;0.75;58.98;100768.78;10410046;28;20128;-77
2021/12/21 14:06:33;;;;;;;14.98;8.45;;;;;;;0.85;59.02;100778.16;10411700;28;20049;-76
2021/12/21 14:11:37;;;;;;;16.05;8.00;;;;;;;0.81;59.18;100773.91;10411898;28;20076;-76
2021/12/21 14:16:46;;;;;;;16.10;8.63;;;;;;;0.75;59.28;100773.94;10411755;28;20528;-76
2021/12/21 14:21:50;;;;;;;20.08;9.57;;;;;;;0.54;59.79;100771.53;10412203;28;20541;-77
2021/12/21 14:26:56;;;;;;;17.08;10.70;;;;;;;0.43;60.01;100771.56;10412192;28;20073;-77
2021/12/21 14:37:16;;;;;;;17.65;10.50;;;;;;;0.19;60.44;100765.69;10410959;28;20152;-77
2021/12/21 14:42:20;;;;;;;18.25;10.73;;;;;;;0.05;60.60;100758.03;10411465;28;20133;-76
2021/12/21 14:47:26;;;;;;;18.27;10.73;;;;;;;-0.05;60.82;100761.50;10411165;28;20059;-76
2021/12/21 14:52:45;;;;;;;23.92;11.38;;;;;;;-0.21;61.16;100766.72;10409195;28;20486;-76
2021/12/21 14:58:02;;;;;;;22.45;11.30;;;;;;;-0.35;61.31;100765.00;10410078;28;20053;-76
2021/12/21 15:03:08;;;;;;;20.42;10.30;;;;;;;-0.46;61.46;100761.63;10410639;28;20124;-79
2021/12/21 15:08:14;;;;;;;16.10;9.82;;;;;;;-0.60;61.64;100765.94;10409581;28;20417;-78
2021/12/21 15:13:18;;;;;;;18.63;10.07;;;;;;;-0.76;62.09;100764.22;10409394;28;20050;-79
2021/12/21 15:18:22;;;;;;;19.45;9.95;;;;;;;-0.90;62.12;100757.41;10409803;28;20054;-76
2021/12/21 15:23:24;;;;;;;23.10;10.15;;;;;;;-1.03;62.44;100776.22;10408858;28;20797;-76
2021/12/21 15:28:26;;;;;;;20.48;9.95;;;;;;;-1.11;62.48;100773.66;10409812;28;20057;-76
2021/12/21 15:33:27;;;;;;;22.38;11.10;;;;;;;-1.17;62.77;100779.63;10408196;28;20085;-76
2021/12/21 15:38:32;;;;;;;21.15;11.50;;;;;;;-1.31;63.23;100783.88;10406802;28;20049;-77
2021/12/21 15:43:40;;;;;;;20.63;13.82;;;;;;;-1.44;63.30;100789.00;10407683;28;20049;-75
2021/12/21 15:48:44;;;;;;;21.15;12.30;;;;;;;-1.58;63.53;100795.78;10407764;28;20077;-77
2021/12/21 15:53:46;;;;;;;25.55;14.75;;;;;;;-1.66;63.70;100798.34;10408155;28;20527;-76
2021/12/21 15:58:47;;;;;;;23.70;14.30;;;;;;;-1.75;63.92;100793.16;10408290;28;20196;-76
2021/12/21 16:03:49;;;;;;;24.35;13.52;;;;;;;-1.83;64.27;100797.41;10406737;28;20076;-76
2021/12/21 16:08:51;;;;;;;21.33;12.52;;;;;;;-1.89;64.38;100799.09;10406671;28;20057;-77
2021/12/21 16:13:53;;;;;;;23.02;12.75;;;;;;;-1.96;64.38;100802.50;10407859;28;20045;-77
2021/12/21 16:19:00;;;;;;;23.23;13.40;;;;;;;-2.02;64.62;100796.47;10407507;28;20179;-76
2021/12/21 16:24:03;;;;;;;24.88;14.27;;;;;;;-2.11;64.77;100806.69;10406456;28;20043;-75
2021/12/21 16:29:05;;;;;;;19.98;11.57;;;;;;;-2.17;64.91;100809.22;10407975;28;20052;-76
2021/12/21 16:34:07;;;;;;;23.08;12.57;;;;;;;-2.24;64.96;100807.47;10407119;28;20084;-76
2021/12/21 16:39:09;;;;;;;22.13;10.95;;;;;;;-2.27;65.21;100822.84;10405765;28;20057;-77
2021/12/21 16:44:12;;;;;;;27.70;14.57;;;;;;;-2.30;65.19;100812.56;10406256;28;20096;-76
2021/12/21 16:49:13;;;;;;;44.67;18.67;;;;;;;-2.37;65.24;100813.38;10406055;28;20079;-76
2021/12/21 16:54:15;;;;;;;32.65;16.13;;;;;;;-2.44;65.12;100814.16;10404702;28;20049;-76
2021/12/21 16:59:17;;;;;;;28.27;15.20;;;;;;;-2.51;65.34;100806.44;10406263;28;20060;-76
2021/12/21 17:04:19;;;;;;;22.23;12.95;;;;;;;-2.57;65.54;100812.34;10404636;28;20055;-77
2021/12/21 17:09:21;;;;;;;25.55;13.98;;;;;;;-2.57;65.59;100808.97;10405768;28;20060;-77
2021/12/21 17:14:22;;;;;;;23.70;12.52;;;;;;;-2.61;65.63;100807.22;10405965;28;20059;-76
2021/12/21 17:19:24;;;;;;;24.85;12.05;;;;;;;-2.67;65.72;100804.63;10404844;28;21102;-76
2021/12/21 17:24:26;;;;;;;22.45;12.50;;;;;;;-2.72;65.98;100809.69;10405379;28;20125;-77
2021/12/21 17:29:28;;;;;;;23.70;11.82;;;;;;;-2.73;65.83;100813.09;10404954;28;20137;-76
2021/12/21 17:34:29;;;;;;;24.23;12.02;;;;;;;-2.75;65.82;100807.09;10393507;28;20067;-76
2021/12/21 17:39:31;;;;;;;20.83;12.27;;;;;;;-2.83;65.84;100813.88;10382477;28;20049;-76
2021/12/21 17:44:33;;;;;;;24.60;13.00;;;;;;;-2.89;66.18;100824.91;10378458;28;20045;-75
2021/12/21 17:49:35;;;;;;;25.67;12.63;;;;;;;-2.97;66.32;100826.56;10381866;28;20050;-76
2021/12/21 17:54:38;;;;;;;20.63;12.52;;;;;;;-3.04;66.47;100844.41;10385605;28;20041;-75
2021/12/21 17:59:43;;;;;;;20.25;11.32;;;;;;;-3.05;66.52;100832.44;10364852;28;20464;-75
2021/12/21 18:04:46;;;;;;;23.33;13.02;;;;;;;-3.08;66.52;100838.38;10368399;28;20046;-75
2021/12/21 18:09:47;;;;;;;24.02;13.57;;;;;;;-3.16;66.10;100834.88;10381818;28;20068;-76
2021/12/21 18:14:49;;;;;;;22.98;11.75;;;;;;;-3.22;66.10;100846.78;10362372;28;20540;-75
2021/12/21 18:19:51;;;;;;;18.55;10.77;;;;;;;-3.26;66.31;100848.44;10387990;28;20072;-75
2021/12/21 18:24:52;;;;;;;24.95;11.82;;;;;;;-3.26;66.32;100856.09;10380164;28;20048;-75
2021/12/21 18:29:56;;;;;;;24.00;13.27;;;;;;;-3.35;66.60;100858.59;10373108;28;20069;-75
2021/12/21 18:34:58;;;;;;;27.30;15.65;;;;;;;-3.38;66.43;100847.44;10400254;28;20060;-75
2021/12/21 18:40:00;;;;;;;27.63;15.23;;;;;;;-3.43;66.33;100844.84;10380020;28;20522;-76
2021/12/21 18:45:03;;;;;;;31.80;15.63;;;;;;;-3.44;66.43;100860.16;10392126;28;20053;-75
2021/12/21 18:50:07;;;;;;;23.15;12.35;;;;;;;-3.52;66.52;100854.09;10409844;28;20080;-74
2021/12/21 18:55:10;;;;;;;27.33;11.88;;;;;;;-3.58;66.53;100866.81;10387505;28;20080;-75
2021/12/21 19:00:26;;;;;;;24.00;12.02;;;;;;;-3.60;66.69;100876.16;10410549;28;20128;-76
2021/12/21 19:05:28;;;;;;;27.15;15.05;;;;;;;-3.59;66.54;100883.88;10407724;28;20128;-76
2021/12/21 19:10:30;;;;;;;29.55;14.13;;;;;;;-3.61;66.49;100884.69;10410424;28;20087;-75
2021/12/21 19:15:33;;;;;;;25.45;14.70;;;;;;;-3.72;66.27;100877.75;10410613;28;20397;-74
2021/12/21 19:20:38;;;;;;;24.95;12.57;;;;;;;-3.78;66.33;100871.69;10410400;28;20072;-75
2021/12/21 19:25:41;;;;;;;27.08;14.60;;;;;;;-3.83;66.55;100892.06;10410103;28;20057;-75
2021/12/21 19:30:44;;;;;;;22.75;12.43;;;;;;;-3.84;66.57;100887.81;10409774;28;20085;-74
2021/12/21 19:35:48;;;;;;;24.13;12.65;;;;;;;-3.85;66.50;100880.97;10408538;28;20136;-75
2021/12/21 19:40:51;;;;;;;25.65;12.45;;;;;;;-3.87;66.44;100882.63;10409587;28;20053;-76
2021/12/21 19:45:53;;;;;;;29.95;14.80;;;;;;;-3.93;66.21;100892.78;10408567;28;20045;-74
2021/12/21 19:51:00;;;;;;;29.13;15.13;;;;;;;-4.02;66.38;100892.66;10408800;28;20057;-75
2021/12/21 19:56:02;;;;;;;25.73;14.35;;;;;;;-4.10;66.42;100895.94;10406670;28;20045;-74
2021/12/21 20:01:03;;;;;;;26.75;13.48;;;;;;;-4.14;66.64;100910.38;10408666;28;20091;-75
2021/12/21 20:06:07;;;;;;;26.60;13.10;;;;;;;-4.13;66.68;100913.75;10408379;28;20057;-75
2021/12/21 20:11:18;;;;;;;28.17;13.57;;;;;;;-4.15;66.51;100915.44;10406997;28;20049;-74
2021/12/21 20:16:22;;;;;;;30.95;16.42;;;;;;;-4.19;66.50;100914.53;10408219;28;20085;-74
2021/12/21 20:21:24;;;;;;;27.83;15.20;;;;;;;-4.21;66.63;100916.22;10407979;28;20056;-74
2021/12/21 20:26:26;;;;;;;26.00;13.32;;;;;;;-4.22;66.65;100900.88;10406733;28;20478;-74
2021/12/21 20:31:27;;;;;;;26.58;13.85;;;;;;;-4.21;66.60;100913.66;10406187;28;20055;-74
2021/12/21 20:36:29;;;;;;;21.88;13.05;;;;;;;-4.23;66.55;100907.66;10408117;28;20133;-74
2021/12/21 20:41:31;;;;;;;35.00;18.67;;;;;;;-4.27;66.53;100912.69;10406575;28;20056;-73
2021/12/21 20:46:33;;;;;;;36.13;22.95;;;;;;;-4.30;66.46;100920.31;10406392;28;20509;-75
2021/12/21 20:51:35;;;;;;;30.17;17.50;;;;;;;-4.33;66.63;100920.25;10406342;28;20048;-76
2021/12/21 20:56:37;;;;;;;29.90;16.30;;;;;;;-4.34;66.53;100927.06;10404853;28;20045;-74
2021/12/21 21:01:39;;;;;;;28.15;13.98;;;;;;;-4.37;66.58;100931.25;10406145;28;20073;-74
2021/12/21 21:06:40;;;;;;;25.85;13.65;;;;;;;-4.39;66.54;100936.34;10406293;28;20124;-74
2021/12/21 21:11:42;;;;;;;23.13;12.65;;;;;;;-4.48;66.36;100930.25;10404677;28;20120;-75
2021/12/21 21:16:44;;;;;;;18.90;12.10;;;;;;;-4.49;66.61;100928.50;10405899;28;20136;-74
2021/12/21 21:21:45;;;;;;;28.73;14.27;;;;;;;-4.59;66.38;100917.28;10406167;28;20055;-75
2021/12/21 21:26:48;;;;;;;32.95;14.48;;;;;;;-4.63;66.54;100915.53;10405078;28;20125;-74
2021/12/21 21:31:51;;;;;;;29.35;14.25;;;;;;;-4.65;66.58;100917.19;10405831;28;20060;-75
2021/12/21 21:36:53;;;;;;;27.65;12.40;;;;;;;-4.63;66.31;100930.84;10404841;28;20132;-74
2021/12/21 21:41:54;;;;;;;22.08;10.95;;;;;;;-4.72;66.33;100936.63;10404711;28;20075;-73
2021/12/21 21:46:57;;;;;;;22.27;12.73;;;;;;;-4.75;66.51;100925.53;10402679;28;20546;-74
2021/12/21 21:51:58;;;;;;;25.30;13.55;;;;;;;-4.78;66.40;100912.69;10404936;28;20049;-74
2021/12/21 21:57:00;;;;;;;24.08;12.43;;;;;;;-4.76;66.54;100926.34;10402989;28;20452;-74
2021/12/21 22:02:04;;;;;;;28.35;12.30;;;;;;;-4.78;66.41;100930.56;10403191;28;20093;-74
2021/12/21 22:07:05;;;;;;;23.55;11.52;;;;;;;-4.79;66.20;100936.50;10403021;28;20088;-73
2021/12/21 22:12:08;;;;;;;22.67;12.05;;;;;;;-4.78;66.84;100945.88;10402247;28;20140;-79
2021/12/21 22:17:09;;;;;;;24.30;12.93;;;;;;;-4.73;66.22;100945.09;10402063;28;20053;-67
2021/12/21 22:22:11;;;;;;;29.30;14.95;;;;;;;-4.82;66.24;100949.19;10407447;28;20056;-67
2021/12/21 22:27:13;;;;;;;27.63;15.18;;;;;;;-4.89;66.40;100965.25;10389501;28;20041;-67
2021/12/21 22:32:15;;;;;;;25.58;13.38;;;;;;;-4.93;66.59;100977.06;10385297;28;20054;-67
2021/12/21 22:37:17;;;;;;;24.90;11.45;;;;;;;-4.95;66.40;100965.13;10401987;28;20519;-67
2021/12/21 22:42:18;;;;;;;21.67;11.95;;;;;;;-4.98;66.43;100967.59;10406360;28;20413;-67
2021/12/21 22:47:20;;;;;;;20.40;11.77;;;;;;;-5.00;66.55;100969.25;10407335;28;20045;-67
2021/12/21 22:52:23;;;;;;;24.80;11.90;;;;;;;-5.01;66.68;100964.97;10408475;28;20045;-67
2021/12/21 22:57:25;;;;;;;25.15;11.98;;;;;;;-5.01;66.50;100970.94;10408644;28;20050;-67
2021/12/21 23:02:27;;;;;;;21.23;10.85;;;;;;;-5.07;66.46;100963.19;10407132;28;20270;-67
2021/12/21 23:07:28;;;;;;;21.23;10.98;;;;;;;-5.11;66.37;100968.19;10406674;28;20409;-67
2021/12/21 23:12:30;;;;;;;18.48;10.95;;;;;;;-5.22;66.47;100962.03;10409174;28;20049;-67
2021/12/21 23:17:32;;;;;;;25.10;11.90;;;;;;;-5.20;66.47;100958.69;10407558;28;20057;-67
2021/12/21 23:22:34;;;;;;;23.00;10.82;;;;;;;-5.20;66.22;100957.81;10408101;28;20067;-68
2021/12/21 23:27:36;;;;;;;22.17;11.02;;;;;;;-5.34;66.30;100960.09;10406673;28;20048;-68
2021/12/21 23:32:38;;;;;;;26.08;12.13;;;;;;;-5.50;66.69;100958.91;10405225;28;20226;-67
2021/12/21 23:37:41;;;;;;;23.23;11.00;;;;;;;-5.45;66.63;100966.66;10406765;28;20053;-67
2021/12/21 23:42:44;;;;;;;22.92;10.65;;;;;;;-5.39;66.51;100959.13;10405911;28;20084;-67
2021/12/21 23:47:46;;;;;;;19.35;11.00;;;;;;;-5.38;66.28;100959.16;10405665;28;20445;-68
2021/12/21 23:52:48;;;;;;;22.25;11.05;;;;;;;-5.39;66.17;100959.13;10406577;28;20041;-67
2021/12/21 23:57:49;;;;;;;27.88;13.38;;;;;;;-5.46;66.49;100964.91;10406050;28;20165;-67
